sensor_id;sensor_type;location;lat;lon;timestamp;P1;durP1;ratioP1;P2;durP2;ratioP2
81191;SDS011;70665;47.652;-2.730;2024-01-27T00:01:44;21.92;;;7.55;;
81191;SDS011;70665;47.652;-2.730;2024-01-27T00:04:10;22.83;;;7.13;;
81191;SDS011;70665;47.652;-2.730;2024-01-27T00:06:36;18.80;;;6.57;;
81191;SDS011;70665;47.652;-2.730;2024-01-27T00:09:01;21.48;;;6.15;;
81191;SDS011;70665;47.652;-2.730;2024-01-27T00:11:27;22.30;;;7.68;;
81191;SDS011;70665;47.652;-2.730;2024-01-27T00:13:53;21.90;;;8.55;;
81191;SDS011;70665;47.652;-2.730;2024-01-27T00:16:19;17.80;;;7.15;;
81191;SDS011;70665;47.652;-2.730;2024-01-27T00:18:45;17.88;;;6.40;;
81191;SDS011;70665;47.652;-2.730;2024-01-27T00:23:36;20.17;;;6.18;;
81191;SDS011;70665;47.652;-2.730;2024-01-27T00:26:02;19.25;;;6.25;;
81191;SDS011;70665;47.652;-2.730;2024-01-27T00:28:29;18.98;;;6.57;;
81191;SDS011;70665;47.652;-2.730;2024-01-27T00:30:54;15.93;;;6.35;;
81191;SDS011;70665;47.652;-2.730;2024-01-27T00:33:21;24.42;;;7.28;;
81191;SDS011;70665;47.652;-2.730;2024-01-27T00:35:47;20.42;;;7.85;;
81191;SDS011;70665;47.652;-2.730;2024-01-27T00:38:12;17.83;;;6.78;;
81191;SDS011;70665;47.652;-2.730;2024-01-27T00:40:38;18.17;;;6.50;;
81191;SDS011;70665;47.652;-2.730;2024-01-27T00:43:04;19.30;;;6.75;;
81191;SDS011;70665;47.652;-2.730;2024-01-27T00:45:30;13.05;;;6.10;;
81191;SDS011;70665;47.652;-2.730;2024-01-27T00:47:56;16.27;;;5.05;;
81191;SDS011;70665;47.652;-2.730;2024-01-27T00:50:22;18.05;;;5.78;;
81191;SDS011;70665;47.652;-2.730;2024-01-27T00:52:47;15.90;;;5.85;;
81191;SDS011;70665;47.652;-2.730;2024-01-27T00:55:13;13.88;;;5.13;;
81191;SDS011;70665;47.652;-2.730;2024-01-27T00:57:39;14.52;;;6.13;;
81191;SDS011;70665;47.652;-2.730;2024-01-27T01:00:06;18.20;;;5.65;;
81191;SDS011;70665;47.652;-2.730;2024-01-27T01:02:33;12.35;;;5.45;;
81191;SDS011;70665;47.652;-2.730;2024-01-27T01:04:59;16.90;;;6.45;;
81191;SDS011;70665;47.652;-2.730;2024-01-27T01:07:24;15.57;;;7.18;;
81191;SDS011;70665;47.652;-2.730;2024-01-27T01:09:50;17.27;;;6.45;;
81191;SDS011;70665;47.652;-2.730;2024-01-27T01:12:15;17.58;;;4.78;;
81191;SDS011;70665;47.652;-2.730;2024-01-27T01:14:41;15.80;;;4.97;;
81191;SDS011;70665;47.652;-2.730;2024-01-27T01:17:08;14.02;;;4.30;;
81191;SDS011;70665;47.652;-2.730;2024-01-27T01:19:33;14.30;;;4.82;;
81191;SDS011;70665;47.652;-2.730;2024-01-27T01:22:01;8.48;;;3.75;;
81191;SDS011;70665;47.652;-2.730;2024-01-27T01:24:26;14.10;;;5.88;;
81191;SDS011;70665;47.652;-2.730;2024-01-27T01:26:52;11.90;;;4.38;;
81191;SDS011;70665;47.652;-2.730;2024-01-27T01:29:17;14.30;;;3.88;;
81191;SDS011;70665;47.652;-2.730;2024-01-27T01:31:43;16.58;;;4.13;;
81191;SDS011;70665;47.652;-2.730;2024-01-27T01:34:09;10.85;;;4.10;;
81191;SDS011;70665;47.652;-2.730;2024-01-27T01:36:34;14.00;;;3.63;;
81191;SDS011;70665;47.652;-2.730;2024-01-27T01:39:00;10.95;;;3.45;;
81191;SDS011;70665;47.652;-2.730;2024-01-27T01:41:25;14.18;;;4.78;;
81191;SDS011;70665;47.652;-2.730;2024-01-27T01:43:51;11.50;;;3.50;;
81191;SDS011;70665;47.652;-2.730;2024-01-27T01:46:17;10.25;;;3.40;;
81191;SDS011;70665;47.652;-2.730;2024-01-27T01:48:43;11.50;;;3.70;;
81191;SDS011;70665;47.652;-2.730;2024-01-27T01:51:09;9.68;;;3.28;;
81191;SDS011;70665;47.652;-2.730;2024-01-27T01:53:36;15.93;;;4.00;;
81191;SDS011;70665;47.652;-2.730;2024-01-27T01:56:02;9.73;;;3.33;;
81191;SDS011;70665;47.652;-2.730;2024-01-27T01:58:29;16.10;;;3.47;;
81191;SDS011;70665;47.652;-2.730;2024-01-27T02:00:59;12.68;;;2.60;;
81191;SDS011;70665;47.652;-2.730;2024-01-27T02:05:51;7.47;;;2.92;;
81191;SDS011;70665;47.652;-2.730;2024-01-27T02:08:16;12.90;;;2.83;;
81191;SDS011;70665;47.652;-2.730;2024-01-27T02:10:42;11.50;;;2.80;;
81191;SDS011;70665;47.652;-2.730;2024-01-27T02:13:17;11.82;;;2.85;;
81191;SDS011;70665;47.652;-2.730;2024-01-27T02:15:44;13.25;;;2.92;;
81191;SDS011;70665;47.652;-2.730;2024-01-27T02:18:09;10.15;;;3.67;;
81191;SDS011;70665;47.652;-2.730;2024-01-27T02:20:35;7.95;;;2.60;;
81191;SDS011;70665;47.652;-2.730;2024-01-27T02:23:02;11.77;;;3.38;;
81191;SDS011;70665;47.652;-2.730;2024-01-27T02:25:29;14.27;;;3.22;;
81191;SDS011;70665;47.652;-2.730;2024-01-27T02:27:58;9.07;;;2.80;;
81191;SDS011;70665;47.652;-2.730;2024-01-27T02:30:24;13.63;;;2.97;;
81191;SDS011;70665;47.652;-2.730;2024-01-27T02:32:51;13.02;;;2.95;;
81191;SDS011;70665;47.652;-2.730;2024-01-27T02:37:42;14.00;;;3.22;;
81191;SDS011;70665;47.652;-2.730;2024-01-27T02:40:08;17.27;;;3.60;;
81191;SDS011;70665;47.652;-2.730;2024-01-27T02:42:37;11.07;;;2.53;;
81191;SDS011;70665;47.652;-2.730;2024-01-27T02:45:03;10.68;;;3.28;;
81191;SDS011;70665;47.652;-2.730;2024-01-27T02:49:55;10.93;;;2.70;;
81191;SDS011;70665;47.652;-2.730;2024-01-27T02:52:20;12.27;;;4.13;;
81191;SDS011;70665;47.652;-2.730;2024-01-27T02:54:46;13.68;;;3.45;;
81191;SDS011;70665;47.652;-2.730;2024-01-27T02:57:12;14.38;;;3.03;;
81191;SDS011;70665;47.652;-2.730;2024-01-27T02:59:38;10.65;;;3.67;;
81191;SDS011;70665;47.652;-2.730;2024-01-27T03:02:04;11.98;;;3.00;;
81191;SDS011;70665;47.652;-2.730;2024-01-27T03:04:30;12.07;;;3.83;;
81191;SDS011;70665;47.652;-2.730;2024-01-27T03:06:56;9.70;;;2.90;;
81191;SDS011;70665;47.652;-2.730;2024-01-27T03:09:22;8.55;;;2.65;;
81191;SDS011;70665;47.652;-2.730;2024-01-27T03:11:47;6.95;;;2.33;;
81191;SDS011;70665;47.652;-2.730;2024-01-27T03:14:13;10.85;;;2.90;;
81191;SDS011;70665;47.652;-2.730;2024-01-27T03:16:39;10.63;;;3.08;;
81191;SDS011;70665;47.652;-2.730;2024-01-27T03:19:05;8.27;;;2.78;;
81191;SDS011;70665;47.652;-2.730;2024-01-27T03:21:31;16.05;;;3.47;;
81191;SDS011;70665;47.652;-2.730;2024-01-27T03:23:57;12.02;;;2.88;;
81191;SDS011;70665;47.652;-2.730;2024-01-27T03:26:22;8.48;;;2.67;;
81191;SDS011;70665;47.652;-2.730;2024-01-27T03:28:48;8.38;;;3.00;;
81191;SDS011;70665;47.652;-2.730;2024-01-27T03:31:14;10.50;;;3.50;;
81191;SDS011;70665;47.652;-2.730;2024-01-27T03:33:39;9.25;;;2.92;;
81191;SDS011;70665;47.652;-2.730;2024-01-27T03:36:11;9.45;;;3.13;;
81191;SDS011;70665;47.652;-2.730;2024-01-27T03:38:38;9.80;;;2.65;;
81191;SDS011;70665;47.652;-2.730;2024-01-27T03:41:05;9.52;;;2.58;;
81191;SDS011;70665;47.652;-2.730;2024-01-27T03:43:31;8.27;;;2.80;;
81191;SDS011;70665;47.652;-2.730;2024-01-27T03:45:59;6.53;;;2.40;;
81191;SDS011;70665;47.652;-2.730;2024-01-27T03:48:25;10.77;;;3.42;;
81191;SDS011;70665;47.652;-2.730;2024-01-27T03:50:51;14.98;;;3.38;;
81191;SDS011;70665;47.652;-2.730;2024-01-27T03:53:16;8.40;;;3.42;;
81191;SDS011;70665;47.652;-2.730;2024-01-27T03:55:42;13.02;;;2.53;;
81191;SDS011;70665;47.652;-2.730;2024-01-27T03:58:08;14.38;;;2.95;;
81191;SDS011;70665;47.652;-2.730;2024-01-27T04:00:33;10.52;;;3.00;;
81191;SDS011;70665;47.652;-2.730;2024-01-27T04:02:59;8.95;;;2.95;;
81191;SDS011;70665;47.652;-2.730;2024-01-27T04:05:26;11.30;;;3.20;;
81191;SDS011;70665;47.652;-2.730;2024-01-27T04:07:52;12.43;;;3.03;;
81191;SDS011;70665;47.652;-2.730;2024-01-27T04:10:18;9.40;;;2.97;;
81191;SDS011;70665;47.652;-2.730;2024-01-27T04:12:44;11.35;;;3.05;;
81191;SDS011;70665;47.652;-2.730;2024-01-27T04:15:10;14.93;;;3.75;;
81191;SDS011;70665;47.652;-2.730;2024-01-27T04:17:36;7.53;;;2.72;;
81191;SDS011;70665;47.652;-2.730;2024-01-27T04:20:02;13.73;;;3.20;;
81191;SDS011;70665;47.652;-2.730;2024-01-27T04:22:29;11.57;;;2.70;;
81191;SDS011;70665;47.652;-2.730;2024-01-27T04:24:56;8.20;;;2.30;;
81191;SDS011;70665;47.652;-2.730;2024-01-27T04:27:21;10.88;;;3.30;;
81191;SDS011;70665;47.652;-2.730;2024-01-27T04:29:47;8.85;;;2.88;;
81191;SDS011;70665;47.652;-2.730;2024-01-27T04:32:13;11.90;;;3.55;;
81191;SDS011;70665;47.652;-2.730;2024-01-27T04:34:39;10.32;;;2.97;;
81191;SDS011;70665;47.652;-2.730;2024-01-27T04:37:05;8.30;;;3.40;;
81191;SDS011;70665;47.652;-2.730;2024-01-27T04:39:31;9.98;;;2.55;;
81191;SDS011;70665;47.652;-2.730;2024-01-27T04:41:56;7.20;;;2.92;;
81191;SDS011;70665;47.652;-2.730;2024-01-27T04:44:22;8.23;;;2.95;;
81191;SDS011;70665;47.652;-2.730;2024-01-27T04:46:48;18.73;;;4.63;;
81191;SDS011;70665;47.652;-2.730;2024-01-27T04:49:14;9.65;;;3.22;;
81191;SDS011;70665;47.652;-2.730;2024-01-27T04:51:40;12.25;;;3.22;;
81191;SDS011;70665;47.652;-2.730;2024-01-27T04:54:06;9.15;;;2.78;;
81191;SDS011;70665;47.652;-2.730;2024-01-27T04:56:32;9.75;;;3.08;;
81191;SDS011;70665;47.652;-2.730;2024-01-27T04:58:58;8.73;;;3.08;;
81191;SDS011;70665;47.652;-2.730;2024-01-27T05:01:23;9.15;;;3.25;;
81191;SDS011;70665;47.652;-2.730;2024-01-27T05:03:49;11.88;;;3.17;;
81191;SDS011;70665;47.652;-2.730;2024-01-27T05:06:15;9.25;;;3.25;;
81191;SDS011;70665;47.652;-2.730;2024-01-27T05:08:41;10.38;;;2.95;;
81191;SDS011;70665;47.652;-2.730;2024-01-27T05:11:07;10.65;;;3.30;;
81191;SDS011;70665;47.652;-2.730;2024-01-27T05:13:32;11.18;;;3.15;;
81191;SDS011;70665;47.652;-2.730;2024-01-27T05:15:58;14.15;;;3.42;;
81191;SDS011;70665;47.652;-2.730;2024-01-27T05:18:24;12.25;;;3.72;;
81191;SDS011;70665;47.652;-2.730;2024-01-27T05:20:49;9.23;;;2.78;;
81191;SDS011;70665;47.652;-2.730;2024-01-27T05:23:15;9.00;;;2.85;;
81191;SDS011;70665;47.652;-2.730;2024-01-27T05:25:40;10.00;;;3.03;;
81191;SDS011;70665;47.652;-2.730;2024-01-27T05:28:06;7.90;;;2.47;;
81191;SDS011;70665;47.652;-2.730;2024-01-27T05:30:32;15.20;;;3.80;;
81191;SDS011;70665;47.652;-2.730;2024-01-27T05:32:58;7.70;;;3.08;;
81191;SDS011;70665;47.652;-2.730;2024-01-27T05:35:23;8.43;;;3.25;;
81191;SDS011;70665;47.652;-2.730;2024-01-27T05:37:49;11.75;;;3.42;;
81191;SDS011;70665;47.652;-2.730;2024-01-27T05:40:16;14.38;;;3.20;;
81191;SDS011;70665;47.652;-2.730;2024-01-27T05:42:42;9.93;;;3.10;;
81191;SDS011;70665;47.652;-2.730;2024-01-27T05:45:10;9.10;;;3.13;;
81191;SDS011;70665;47.652;-2.730;2024-01-27T05:47:36;13.50;;;3.17;;
81191;SDS011;70665;47.652;-2.730;2024-01-27T05:50:01;9.90;;;3.20;;
81191;SDS011;70665;47.652;-2.730;2024-01-27T05:52:28;9.95;;;3.95;;
81191;SDS011;70665;47.652;-2.730;2024-01-27T05:54:54;10.57;;;3.35;;
81191;SDS011;70665;47.652;-2.730;2024-01-27T05:57:20;7.10;;;2.75;;
81191;SDS011;70665;47.652;-2.730;2024-01-27T05:59:45;15.30;;;3.78;;
81191;SDS011;70665;47.652;-2.730;2024-01-27T06:02:11;12.60;;;4.15;;
81191;SDS011;70665;47.652;-2.730;2024-01-27T06:04:37;11.38;;;3.33;;
81191;SDS011;70665;47.652;-2.730;2024-01-27T06:07:02;9.60;;;2.55;;
81191;SDS011;70665;47.652;-2.730;2024-01-27T06:09:28;12.82;;;3.33;;
81191;SDS011;70665;47.652;-2.730;2024-01-27T06:11:54;8.27;;;2.78;;
81191;SDS011;70665;47.652;-2.730;2024-01-27T06:14:20;7.68;;;2.95;;
81191;SDS011;70665;47.652;-2.730;2024-01-27T06:16:45;11.20;;;2.50;;
81191;SDS011;70665;47.652;-2.730;2024-01-27T06:19:11;7.55;;;3.15;;
81191;SDS011;70665;47.652;-2.730;2024-01-27T06:21:36;9.93;;;2.80;;
81191;SDS011;70665;47.652;-2.730;2024-01-27T06:24:02;12.45;;;3.42;;
81191;SDS011;70665;47.652;-2.730;2024-01-27T06:26:28;9.70;;;3.47;;
81191;SDS011;70665;47.652;-2.730;2024-01-27T06:28:53;8.27;;;3.40;;
81191;SDS011;70665;47.652;-2.730;2024-01-27T06:31:19;10.75;;;4.07;;
81191;SDS011;70665;47.652;-2.730;2024-01-27T06:33:44;10.80;;;3.78;;
81191;SDS011;70665;47.652;-2.730;2024-01-27T06:36:10;9.30;;;3.00;;
81191;SDS011;70665;47.652;-2.730;2024-01-27T06:38:37;8.75;;;3.00;;
81191;SDS011;70665;47.652;-2.730;2024-01-27T06:41:03;12.40;;;4.63;;
81191;SDS011;70665;47.652;-2.730;2024-01-27T06:43:29;5.78;;;3.05;;
81191;SDS011;70665;47.652;-2.730;2024-01-27T06:45:54;4.97;;;2.85;;
81191;SDS011;70665;47.652;-2.730;2024-01-27T06:48:22;9.50;;;3.20;;
81191;SDS011;70665;47.652;-2.730;2024-01-27T06:50:50;14.40;;;3.28;;
81191;SDS011;70665;47.652;-2.730;2024-01-27T06:53:17;8.98;;;2.95;;
81191;SDS011;70665;47.652;-2.730;2024-01-27T06:55:44;10.80;;;3.50;;
81191;SDS011;70665;47.652;-2.730;2024-01-27T06:58:09;11.07;;;3.25;;
81191;SDS011;70665;47.652;-2.730;2024-01-27T07:00:35;12.52;;;3.25;;
81191;SDS011;70665;47.652;-2.730;2024-01-27T07:03:01;8.70;;;3.10;;
81191;SDS011;70665;47.652;-2.730;2024-01-27T07:05:27;5.95;;;2.55;;
81191;SDS011;70665;47.652;-2.730;2024-01-27T07:07:53;8.07;;;3.58;;
81191;SDS011;70665;47.652;-2.730;2024-01-27T07:10:18;13.15;;;3.83;;
81191;SDS011;70665;47.652;-2.730;2024-01-27T07:12:44;12.52;;;3.53;;
81191;SDS011;70665;47.652;-2.730;2024-01-27T07:15:10;9.98;;;3.53;;
81191;SDS011;70665;47.652;-2.730;2024-01-27T07:17:35;8.15;;;2.60;;
81191;SDS011;70665;47.652;-2.730;2024-01-27T07:20:01;7.43;;;2.75;;
81191;SDS011;70665;47.652;-2.730;2024-01-27T07:22:27;11.48;;;3.17;;
81191;SDS011;70665;47.652;-2.730;2024-01-27T07:24:53;7.78;;;2.83;;
81191;SDS011;70665;47.652;-2.730;2024-01-27T07:27:18;10.60;;;2.88;;
81191;SDS011;70665;47.652;-2.730;2024-01-27T07:29:44;14.20;;;3.63;;
81191;SDS011;70665;47.652;-2.730;2024-01-27T07:32:10;6.07;;;2.70;;
81191;SDS011;70665;47.652;-2.730;2024-01-27T07:34:42;12.65;;;2.97;;
81191;SDS011;70665;47.652;-2.730;2024-01-27T07:37:08;10.60;;;2.65;;
81191;SDS011;70665;47.652;-2.730;2024-01-27T07:39:34;10.77;;;2.88;;
81191;SDS011;70665;47.652;-2.730;2024-01-27T07:42:00;11.65;;;3.03;;
81191;SDS011;70665;47.652;-2.730;2024-01-27T07:44:26;9.98;;;2.85;;
81191;SDS011;70665;47.652;-2.730;2024-01-27T07:46:52;10.05;;;3.85;;
81191;SDS011;70665;47.652;-2.730;2024-01-27T07:49:18;10.23;;;2.80;;
81191;SDS011;70665;47.652;-2.730;2024-01-27T07:51:44;10.38;;;3.10;;
81191;SDS011;70665;47.652;-2.730;2024-01-27T07:54:09;21.05;;;3.25;;
81191;SDS011;70665;47.652;-2.730;2024-01-27T07:56:35;13.18;;;2.97;;
81191;SDS011;70665;47.652;-2.730;2024-01-27T07:59:02;11.32;;;3.28;;
81191;SDS011;70665;47.652;-2.730;2024-01-27T08:01:27;12.63;;;3.13;;
81191;SDS011;70665;47.652;-2.730;2024-01-27T08:03:53;7.90;;;3.42;;
81191;SDS011;70665;47.652;-2.730;2024-01-27T08:06:22;6.25;;;3.08;;
81191;SDS011;70665;47.652;-2.730;2024-01-27T08:08:52;8.25;;;2.60;;
81191;SDS011;70665;47.652;-2.730;2024-01-27T08:11:21;7.47;;;2.75;;
81191;SDS011;70665;47.652;-2.730;2024-01-27T08:13:47;12.73;;;3.20;;
81191;SDS011;70665;47.652;-2.730;2024-01-27T08:18:42;13.05;;;3.30;;
81191;SDS011;70665;47.652;-2.730;2024-01-27T08:21:09;9.48;;;3.05;;
81191;SDS011;70665;47.652;-2.730;2024-01-27T08:23:35;9.13;;;3.13;;
81191;SDS011;70665;47.652;-2.730;2024-01-27T08:26:01;8.88;;;3.65;;
81191;SDS011;70665;47.652;-2.730;2024-01-27T08:28:27;10.00;;;4.10;;
81191;SDS011;70665;47.652;-2.730;2024-01-27T08:30:52;12.02;;;4.00;;
81191;SDS011;70665;47.652;-2.730;2024-01-27T08:33:18;8.25;;;3.25;;
81191;SDS011;70665;47.652;-2.730;2024-01-27T08:35:46;13.45;;;3.47;;
81191;SDS011;70665;47.652;-2.730;2024-01-27T08:38:13;10.52;;;3.55;;
81191;SDS011;70665;47.652;-2.730;2024-01-27T08:40:40;8.52;;;2.50;;
81191;SDS011;70665;47.652;-2.730;2024-01-27T08:45:32;14.25;;;2.92;;
81191;SDS011;70665;47.652;-2.730;2024-01-27T08:47:58;8.32;;;2.53;;
81191;SDS011;70665;47.652;-2.730;2024-01-27T08:50:23;6.78;;;2.50;;
81191;SDS011;70665;47.652;-2.730;2024-01-27T08:52:49;10.93;;;3.00;;
81191;SDS011;70665;47.652;-2.730;2024-01-27T08:55:15;9.85;;;2.63;;
81191;SDS011;70665;47.652;-2.730;2024-01-27T08:57:44;9.35;;;2.83;;
81191;SDS011;70665;47.652;-2.730;2024-01-27T09:00:12;8.57;;;2.72;;
81191;SDS011;70665;47.652;-2.730;2024-01-27T09:02:40;9.30;;;2.25;;
81191;SDS011;70665;47.652;-2.730;2024-01-27T09:05:06;9.05;;;2.45;;
81191;SDS011;70665;47.652;-2.730;2024-01-27T09:07:31;9.02;;;2.50;;
81191;SDS011;70665;47.652;-2.730;2024-01-27T09:09:58;11.23;;;2.80;;
81191;SDS011;70665;47.652;-2.730;2024-01-27T09:12:24;8.13;;;2.55;;
81191;SDS011;70665;47.652;-2.730;2024-01-27T09:14:49;9.70;;;3.22;;
81191;SDS011;70665;47.652;-2.730;2024-01-27T09:17:15;24.80;;;3.28;;
81191;SDS011;70665;47.652;-2.730;2024-01-27T09:19:41;8.00;;;3.13;;
81191;SDS011;70665;47.652;-2.730;2024-01-27T09:22:07;8.10;;;2.65;;
81191;SDS011;70665;47.652;-2.730;2024-01-27T09:24:33;8.38;;;2.92;;
81191;SDS011;70665;47.652;-2.730;2024-01-27T09:26:59;10.35;;;2.78;;
81191;SDS011;70665;47.652;-2.730;2024-01-27T09:29:25;10.98;;;2.92;;
81191;SDS011;70665;47.652;-2.730;2024-01-27T09:31:51;10.63;;;2.65;;
81191;SDS011;70665;47.652;-2.730;2024-01-27T09:34:16;12.45;;;3.10;;
81191;SDS011;70665;47.652;-2.730;2024-01-27T09:36:42;12.05;;;2.90;;
81191;SDS011;70665;47.652;-2.730;2024-01-27T09:39:07;9.07;;;2.83;;
81191;SDS011;70665;47.652;-2.730;2024-01-27T09:41:33;11.27;;;2.80;;
81191;SDS011;70665;47.652;-2.730;2024-01-27T09:44:02;7.18;;;2.65;;
81191;SDS011;70665;47.652;-2.730;2024-01-27T09:46:30;12.45;;;2.95;;
81191;SDS011;70665;47.652;-2.730;2024-01-27T09:48:56;9.07;;;2.85;;
81191;SDS011;70665;47.652;-2.730;2024-01-27T09:51:22;9.63;;;3.08;;
81191;SDS011;70665;47.652;-2.730;2024-01-27T09:53:48;10.93;;;2.70;;
81191;SDS011;70665;47.652;-2.730;2024-01-27T09:56:17;10.50;;;3.10;;
81191;SDS011;70665;47.652;-2.730;2024-01-27T09:58:44;10.52;;;2.83;;
81191;SDS011;70665;47.652;-2.730;2024-01-27T10:03:36;5.28;;;2.50;;
81191;SDS011;70665;47.652;-2.730;2024-01-27T10:06:05;6.22;;;2.45;;
81191;SDS011;70665;47.652;-2.730;2024-01-27T10:08:34;8.00;;;2.63;;
81191;SDS011;70665;47.652;-2.730;2024-01-27T10:11:00;8.10;;;2.60;;
81191;SDS011;70665;47.652;-2.730;2024-01-27T10:13:32;10.57;;;2.92;;
81191;SDS011;70665;47.652;-2.730;2024-01-27T10:16:08;7.97;;;3.17;;
81191;SDS011;70665;47.652;-2.730;2024-01-27T10:18:36;8.75;;;2.70;;
81191;SDS011;70665;47.652;-2.730;2024-01-27T10:21:15;8.65;;;2.75;;
81191;SDS011;70665;47.652;-2.730;2024-01-27T10:23:41;10.55;;;2.85;;
81191;SDS011;70665;47.652;-2.730;2024-01-27T10:26:10;13.60;;;3.33;;
81191;SDS011;70665;47.652;-2.730;2024-01-27T10:28:36;10.75;;;2.60;;
81191;SDS011;70665;47.652;-2.730;2024-01-27T10:31:09;9.65;;;3.53;;
81191;SDS011;70665;47.652;-2.730;2024-01-27T10:33:38;9.38;;;3.13;;
81191;SDS011;70665;47.652;-2.730;2024-01-27T10:36:05;12.68;;;2.88;;
81191;SDS011;70665;47.652;-2.730;2024-01-27T10:38:37;8.23;;;2.70;;
81191;SDS011;70665;47.652;-2.730;2024-01-27T10:43:43;12.40;;;3.53;;
81191;SDS011;70665;47.652;-2.730;2024-01-27T10:46:09;8.25;;;3.03;;
81191;SDS011;70665;47.652;-2.730;2024-01-27T10:48:38;10.63;;;3.78;;
81191;SDS011;70665;47.652;-2.730;2024-01-27T10:51:07;6.88;;;3.15;;
81191;SDS011;70665;47.652;-2.730;2024-01-27T10:53:35;6.60;;;2.60;;
81191;SDS011;70665;47.652;-2.730;2024-01-27T10:56:02;9.65;;;2.85;;
81191;SDS011;70665;47.652;-2.730;2024-01-27T10:58:32;10.43;;;3.00;;
81191;SDS011;70665;47.652;-2.730;2024-01-27T11:01:05;7.30;;;3.30;;
81191;SDS011;70665;47.652;-2.730;2024-01-27T11:03:35;12.65;;;3.50;;
81191;SDS011;70665;47.652;-2.730;2024-01-27T11:06:04;8.77;;;2.72;;
81191;SDS011;70665;47.652;-2.730;2024-01-27T11:08:30;11.98;;;2.50;;
81191;SDS011;70665;47.652;-2.730;2024-01-27T11:10:57;9.35;;;3.00;;
81191;SDS011;70665;47.652;-2.730;2024-01-27T11:13:24;11.25;;;3.17;;
81191;SDS011;70665;47.652;-2.730;2024-01-27T11:15:53;13.27;;;3.28;;
81191;SDS011;70665;47.652;-2.730;2024-01-27T11:18:20;10.65;;;2.58;;
81191;SDS011;70665;47.652;-2.730;2024-01-27T11:20:46;10.75;;;3.22;;
81191;SDS011;70665;47.652;-2.730;2024-01-27T11:23:14;8.98;;;3.05;;
81191;SDS011;70665;47.652;-2.730;2024-01-27T11:25:40;10.32;;;3.72;;
81191;SDS011;70665;47.652;-2.730;2024-01-27T11:28:12;11.30;;;2.88;;
81191;SDS011;70665;47.652;-2.730;2024-01-27T11:30:40;14.13;;;3.05;;
81191;SDS011;70665;47.652;-2.730;2024-01-27T11:33:13;10.25;;;3.47;;
81191;SDS011;70665;47.652;-2.730;2024-01-27T11:35:39;7.85;;;3.28;;
81191;SDS011;70665;47.652;-2.730;2024-01-27T11:38:05;10.48;;;3.05;;
81191;SDS011;70665;47.652;-2.730;2024-01-27T11:43:00;12.57;;;3.20;;
81191;SDS011;70665;47.652;-2.730;2024-01-27T11:45:27;11.30;;;3.35;;
81191;SDS011;70665;47.652;-2.730;2024-01-27T11:47:54;8.82;;;3.03;;
81191;SDS011;70665;47.652;-2.730;2024-01-27T11:50:20;8.80;;;3.08;;
81191;SDS011;70665;47.652;-2.730;2024-01-27T11:52:46;7.38;;;3.20;;
81191;SDS011;70665;47.652;-2.730;2024-01-27T11:55:12;6.95;;;2.90;;
81191;SDS011;70665;47.652;-2.730;2024-01-27T11:57:40;10.18;;;3.40;;
81191;SDS011;70665;47.652;-2.730;2024-01-27T12:00:08;12.30;;;2.90;;
81191;SDS011;70665;47.652;-2.730;2024-01-27T12:02:35;8.80;;;3.15;;
81191;SDS011;70665;47.652;-2.730;2024-01-27T12:05:02;9.95;;;2.78;;
81191;SDS011;70665;47.652;-2.730;2024-01-27T12:07:29;9.10;;;2.70;;
81191;SDS011;70665;47.652;-2.730;2024-01-27T12:09:56;8.90;;;3.20;;
81191;SDS011;70665;47.652;-2.730;2024-01-27T12:12:21;9.57;;;3.15;;
81191;SDS011;70665;47.652;-2.730;2024-01-27T12:17:14;10.82;;;2.38;;
81191;SDS011;70665;47.652;-2.730;2024-01-27T12:19:45;5.95;;;2.53;;
81191;SDS011;70665;47.652;-2.730;2024-01-27T12:22:26;8.95;;;2.50;;
81191;SDS011;70665;47.652;-2.730;2024-01-27T12:24:53;5.38;;;2.80;;
81191;SDS011;70665;47.652;-2.730;2024-01-27T12:27:21;7.63;;;2.75;;
81191;SDS011;70665;47.652;-2.730;2024-01-27T12:29:47;7.75;;;2.13;;
81191;SDS011;70665;47.652;-2.730;2024-01-27T12:32:15;9.35;;;2.42;;
81191;SDS011;70665;47.652;-2.730;2024-01-27T12:34:43;8.25;;;2.88;;
81191;SDS011;70665;47.652;-2.730;2024-01-27T12:37:13;13.65;;;5.07;;
81191;SDS011;70665;47.652;-2.730;2024-01-27T12:39:45;12.20;;;3.92;;
81191;SDS011;70665;47.652;-2.730;2024-01-27T12:42:11;8.15;;;3.10;;
81191;SDS011;70665;47.652;-2.730;2024-01-27T12:44:37;9.90;;;3.22;;
81191;SDS011;70665;47.652;-2.730;2024-01-27T12:47:02;7.93;;;2.80;;
81191;SDS011;70665;47.652;-2.730;2024-01-27T12:49:29;9.27;;;2.33;;
81191;SDS011;70665;47.652;-2.730;2024-01-27T12:51:55;7.72;;;2.80;;
81191;SDS011;70665;47.652;-2.730;2024-01-27T12:54:21;8.90;;;2.38;;
81191;SDS011;70665;47.652;-2.730;2024-01-27T12:59:13;7.95;;;3.05;;
81191;SDS011;70665;47.652;-2.730;2024-01-27T13:04:05;10.13;;;3.10;;
81191;SDS011;70665;47.652;-2.730;2024-01-27T13:06:30;7.47;;;2.97;;
81191;SDS011;70665;47.652;-2.730;2024-01-27T13:11:21;9.75;;;2.60;;
81191;SDS011;70665;47.652;-2.730;2024-01-27T13:16:13;9.38;;;3.10;;
81191;SDS011;70665;47.652;-2.730;2024-01-27T13:21:04;9.27;;;3.47;;
81191;SDS011;70665;47.652;-2.730;2024-01-27T13:23:31;5.60;;;2.60;;
81191;SDS011;70665;47.652;-2.730;2024-01-27T13:25:58;9.07;;;2.50;;
81191;SDS011;70665;47.652;-2.730;2024-01-27T13:28:24;6.57;;;2.63;;
81191;SDS011;70665;47.652;-2.730;2024-01-27T13:30:49;8.68;;;2.60;;
81191;SDS011;70665;47.652;-2.730;2024-01-27T13:35:41;7.70;;;2.33;;
81191;SDS011;70665;47.652;-2.730;2024-01-27T13:38:11;6.65;;;2.38;;
81191;SDS011;70665;47.652;-2.730;2024-01-27T13:40:41;9.15;;;2.83;;
81191;SDS011;70665;47.652;-2.730;2024-01-27T13:43:07;9.60;;;2.90;;
81191;SDS011;70665;47.652;-2.730;2024-01-27T13:45:33;5.82;;;2.50;;
81191;SDS011;70665;47.652;-2.730;2024-01-27T13:47:59;9.98;;;2.42;;
81191;SDS011;70665;47.652;-2.730;2024-01-27T13:52:56;6.18;;;2.45;;
81191;SDS011;70665;47.652;-2.730;2024-01-27T13:55:23;8.38;;;2.38;;
81191;SDS011;70665;47.652;-2.730;2024-01-27T13:57:50;8.20;;;2.63;;
81191;SDS011;70665;47.652;-2.730;2024-01-27T14:00:16;7.07;;;2.50;;
81191;SDS011;70665;47.652;-2.730;2024-01-27T14:05:07;8.55;;;2.42;;
81191;SDS011;70665;47.652;-2.730;2024-01-27T14:07:34;9.60;;;3.00;;
81191;SDS011;70665;47.652;-2.730;2024-01-27T14:12:26;8.32;;;2.90;;
81191;SDS011;70665;47.652;-2.730;2024-01-27T14:14:52;7.35;;;2.72;;
81191;SDS011;70665;47.652;-2.730;2024-01-27T14:19:45;6.20;;;3.22;;
81191;SDS011;70665;47.652;-2.730;2024-01-27T14:22:12;6.85;;;2.20;;
81191;SDS011;70665;47.652;-2.730;2024-01-27T14:27:04;8.77;;;2.70;;
81191;SDS011;70665;47.652;-2.730;2024-01-27T14:29:33;6.65;;;2.72;;
81191;SDS011;70665;47.652;-2.730;2024-01-27T14:32:00;7.60;;;3.08;;
81191;SDS011;70665;47.652;-2.730;2024-01-27T14:36:51;8.07;;;4.57;;
81191;SDS011;70665;47.652;-2.730;2024-01-27T14:39:17;9.10;;;2.90;;
81191;SDS011;70665;47.652;-2.730;2024-01-27T14:44:09;8.50;;;2.47;;
81191;SDS011;70665;47.652;-2.730;2024-01-27T14:46:36;7.68;;;2.50;;
81191;SDS011;70665;47.652;-2.730;2024-01-27T14:49:05;10.85;;;3.13;;
81191;SDS011;70665;47.652;-2.730;2024-01-27T14:51:32;10.60;;;3.53;;
81191;SDS011;70665;47.652;-2.730;2024-01-27T14:53:59;6.68;;;2.63;;
81191;SDS011;70665;47.652;-2.730;2024-01-27T14:56:28;6.53;;;3.17;;
81191;SDS011;70665;47.652;-2.730;2024-01-27T14:58:55;8.43;;;3.63;;
81191;SDS011;70665;47.652;-2.730;2024-01-27T15:01:21;9.55;;;3.00;;
81191;SDS011;70665;47.652;-2.730;2024-01-27T15:03:48;8.85;;;3.42;;
81191;SDS011;70665;47.652;-2.730;2024-01-27T15:08:39;7.38;;;2.80;;
81191;SDS011;70665;47.652;-2.730;2024-01-27T15:11:05;7.18;;;2.47;;
81191;SDS011;70665;47.652;-2.730;2024-01-27T15:13:31;9.55;;;2.75;;
81191;SDS011;70665;47.652;-2.730;2024-01-27T15:18:22;7.10;;;2.60;;
81191;SDS011;70665;47.652;-2.730;2024-01-27T15:23:13;9.38;;;2.88;;
81191;SDS011;70665;47.652;-2.730;2024-01-27T15:28:04;7.35;;;2.72;;
81191;SDS011;70665;47.652;-2.730;2024-01-27T15:30:31;8.02;;;2.50;;